Terminal Aerodrome Forecast
Issued by NWS

Home | Current Version | Previous Version | Text Only | Print | Product List | Glossary Off
Versions: 1 2 3 4 5 6 7 8 9 10 11 12 13 14 15 16 17 18 19 20

000
FTUS43 KABR 211700
TAFATY
TAF
KATY 211728Z 2118/2218 14008KT P6SM SCT020 BKN180
     FM212300 18013KT P6SM BKN200
     FM220100 VRB06KT P6SM BKN200
     FM220700 33010KT P6SM SCT250=

USA.gov is the U.S. government's official web portal to all federal, state and local government web resources and services.